Time;durP1;ratioP1;P1;durP2;ratioP2;P2;SDS_P1;SDS_P2;PMS_P1;PMS_P2;Temp;Humidity;BMP_temperature;BMP_pressure;BME280_temperature;BME280_humidity;BME280_pressure;Samples;Min_cycle;Max_cycle;Signal;HPM_P1;HPM_P2
2023/01/08 00:01:48;;;;;;;4.78;2.40;;;15.90;95.20;;;;;;5074040;28;20028;-71
2023/01/08 00:04:16;;;;;;;5.80;2.70;;;15.80;94.80;;;;;;5074018;28;20030;-67
2023/01/08 00:06:42;;;;;;;5.78;2.40;;;15.70;94.70;;;;;;5074149;28;20020;-64
2023/01/08 00:09:09;;;;;;;4.22;2.33;;;15.70;94.80;;;;;;5073616;28;20021;-71
2023/01/08 00:11:34;;;;;;;4.50;2.45;;;15.70;94.40;;;;;;5073848;28;20020;-71
2023/01/08 00:14:00;;;;;;;3.75;2.17;;;15.60;94.50;;;;;;5073038;28;20523;-68
2023/01/08 00:16:26;;;;;;;5.57;2.13;;;15.50;94.60;;;;;;5073145;28;20029;-65
2023/01/08 00:18:52;;;;;;;5.53;2.22;;;15.50;94.60;;;;;;5072010;28;20028;-71
2023/01/08 00:21:17;;;;;;;6.47;2.28;;;15.40;94.70;;;;;;5073802;28;20033;-69
2023/01/08 00:23:43;;;;;;;4.20;1.70;;;15.40;94.60;;;;;;5073097;28;20462;-65
2023/01/08 00:26:10;;;;;;;4.70;2.25;;;15.40;94.60;;;;;;5073506;28;20035;-67
2023/01/08 00:28:36;;;;;;;3.90;2.25;;;15.40;94.60;;;;;;5073850;28;20036;-66
2023/01/08 00:31:03;;;;;;;5.28;2.05;;;15.30;94.50;;;;;;5073666;28;20040;-63
2023/01/08 00:33:28;;;;;;;5.35;1.65;;;15.30;94.30;;;;;;5073630;28;20470;-64
2023/01/08 00:35:54;;;;;;;3.63;1.63;;;15.40;94.20;;;;;;5073543;28;20400;-64
2023/01/08 00:38:23;;;;;;;3.45;1.60;;;15.40;94.00;;;;;;5073411;28;20021;-65
2023/01/08 00:40:49;;;;;;;1.98;1.10;;;15.30;93.90;;;;;;5072929;28;20036;-70
2023/01/08 00:43:14;;;;;;;3.78;1.33;;;15.30;93.40;;;;;;5072330;28;20038;-65
2023/01/08 00:45:41;;;;;;;2.78;0.88;;;15.30;93.00;;;;;;5073364;28;20016;-71
2023/01/08 00:48:06;;;;;;;4.68;1.00;;;15.30;92.60;;;;;;5073238;28;20078;-68
2023/01/08 00:50:32;;;;;;;3.80;0.90;;;15.10;92.40;;;;;;5072430;28;20029;-65
2023/01/08 00:52:58;;;;;;;1.63;0.68;;;15.20;92.10;;;;;;5072987;28;20029;-72
2023/01/08 00:55:24;;;;;;;2.28;0.60;;;15.10;91.90;;;;;;5072966;28;20080;-66
2023/01/08 00:57:49;;;;;;;5.10;0.80;;;15.30;91.70;;;;;;5072529;28;20037;-70
2023/01/08 01:00:15;;;;;;;2.83;0.73;;;15.10;91.80;;;;;;5072928;28;20039;-69
2023/01/08 01:02:41;;;;;;;2.75;0.65;;;15.20;91.40;;;;;;5072743;28;20040;-65
2023/01/08 01:05:08;;;;;;;2.40;0.70;;;15.20;91.40;;;;;;5073263;28;20023;-69
2023/01/08 01:07:34;;;;;;;5.50;0.73;;;15.20;91.70;;;;;;5073037;28;20028;-67
2023/01/08 01:09:59;;;;;;;3.05;1.00;;;15.10;91.30;;;;;;5071372;28;20033;-68
2023/01/08 01:12:25;;;;;;;3.33;0.65;;;15.10;91.30;;;;;;5072434;28;20028;-64
2023/01/08 01:14:51;;;;;;;3.30;0.80;;;15.10;91.30;;;;;;5071097;28;20054;-65
2023/01/08 01:17:16;;;;;;;3.08;0.70;;;15.20;91.20;;;;;;5073449;28;20060;-65
2023/01/08 01:19:42;;;;;;;4.22;0.75;;;15.20;91.20;;;;;;5072551;28;20048;-65
2023/01/08 01:22:07;;;;;;;1.98;0.57;;;15.10;91.20;;;;;;5071852;28;20070;-65
2023/01/08 01:24:33;;;;;;;4.20;0.52;;;15.20;91.00;;;;;;5072420;28;20521;-67
2023/01/08 01:26:59;;;;;;;4.38;1.00;;;15.20;91.10;;;;;;5072555;28;20024;-65
2023/01/08 01:29:25;;;;;;;2.92;0.60;;;15.10;91.10;;;;;;5072806;28;20086;-63
2023/01/08 01:31:50;;;;;;;3.25;0.52;;;15.10;91.10;;;;;;5072511;28;20063;-63
2023/01/08 01:34:16;;;;;;;6.25;0.88;;;15.00;91.10;;;;;;5073234;28;20033;-65
2023/01/08 01:36:42;;;;;;;4.80;0.82;;;15.10;91.20;;;;;;5072418;28;20056;-64
2023/01/08 01:39:07;;;;;;;4.03;0.60;;;15.10;91.20;;;;;;5072311;28;20081;-64
2023/01/08 01:41:42;;;;;;;5.57;1.10;;;15.10;91.20;;;;;;5072942;28;20068;-64
2023/01/08 01:44:43;;;;;;;3.33;0.63;;;15.00;91.10;;;;;;5072299;28;20024;-65
2023/01/08 01:47:11;;;;;;;3.75;0.80;;;15.10;91.20;;;;;;5072200;28;20476;-64
2023/01/08 01:49:40;;;;;;;6.57;0.80;;;15.10;91.10;;;;;;5072516;28;20032;-64
2023/01/08 01:52:07;;;;;;;4.25;0.85;;;15.00;91.20;;;;;;5072048;28;20028;-64
2023/01/08 01:54:34;;;;;;;2.08;0.60;;;15.00;91.30;;;;;;5072645;28;20025;-64
2023/01/08 01:57:00;;;;;;;3.47;0.70;;;15.00;91.30;;;;;;5072226;28;20024;-65
2023/01/08 01:59:26;;;;;;;1.90;0.55;;;15.00;91.30;;;;;;5072474;28;20414;-65
2023/01/08 02:01:52;;;;;;;3.65;0.70;;;15.00;91.40;;;;;;5063984;28;20036;-66
2023/01/08 02:04:17;;;;;;;2.08;0.35;;;14.90;91.70;;;;;;5052106;28;20031;-68
2023/01/08 02:06:55;;;;;;;3.90;1.20;;;14.90;91.70;;;;;;5051434;28;20428;-69
2023/01/08 02:09:38;;;;;;;2.08;0.63;;;14.90;91.80;;;;;;5052403;28;20106;-66
2023/01/08 02:12:15;;;;;;;;;;;14.90;91.90;;;;;;5052473;28;20046;-66
2023/01/08 02:15:03;;;;;;;4.53;0.68;;;15.10;92.00;;;;;;5052067;28;19904;-66
2023/01/08 02:17:41;;;;;;;3.25;0.63;;;15.00;92.20;;;;;;5052168;28;20039;-66
2023/01/08 02:20:29;;;;;;;3.17;0.60;;;14.90;92.30;;;;;;5052185;28;20037;-69
2023/01/08 02:22:58;;;;;;;1.48;0.50;;;14.70;92.60;;;;;;5051787;28;20032;-68
2023/01/08 02:25:36;;;;;;;3.70;0.63;;;14.80;92.70;;;;;;5052045;28;20029;-68
2023/01/08 02:28:07;;;;;;;5.35;1.05;;;14.80;92.80;;;;;;5050630;28;20021;-71
2023/01/08 02:30:33;;;;;;;1.75;0.70;;;14.80;92.90;;;;;;5052040;28;20039;-63
2023/01/08 02:32:59;;;;;;;4.00;0.80;;;14.80;93.00;;;;;;5054332;28;20021;-72
2023/01/08 02:35:38;;;;;;;3.10;0.80;;;14.80;93.00;;;;;;5055537;28;20029;-66
2023/01/08 02:38:04;;;;;;;3.47;0.75;;;14.80;93.10;;;;;;5055832;28;20062;-68
2023/01/08 02:40:39;;;;;;;5.45;1.20;;;14.80;93.10;;;;;;5055790;28;20120;-71
2023/01/08 02:43:13;;;;;;;4.13;1.02;;;14.80;93.20;;;;;;5054020;28;20440;-71
2023/01/08 02:45:47;;;;;;;6.93;1.10;;;14.70;93.30;;;;;;5055948;28;20040;-69
2023/01/08 02:48:34;;;;;;;5.35;1.00;;;14.80;93.30;;;;;;5055463;28;20028;-72
2023/01/08 02:51:05;;;;;;;3.30;1.00;;;14.70;93.50;;;;;;5055316;28;20109;-67
2023/01/08 02:53:40;;;;;;;2.42;0.90;;;14.70;93.60;;;;;;5055281;28;20534;-71
2023/01/08 02:56:13;;;;;;;3.95;1.05;;;14.70;93.60;;;;;;5055474;28;20025;-70
2023/01/08 02:58:40;;;;;;;4.22;1.27;;;14.70;93.70;;;;;;5055327;28;20083;-66
2023/01/08 03:01:09;;;;;;;5.70;1.10;;;14.70;93.70;;;;;;5054163;28;20391;-66
2023/01/08 03:03:38;;;;;;;2.97;0.93;;;14.70;93.80;;;;;;5055470;28;20013;-67
2023/01/08 03:06:07;;;;;;;3.88;1.13;;;14.60;93.80;;;;;;5055121;28;20061;-69
2023/01/08 03:08:36;;;;;;;4.50;1.50;;;14.60;94.00;;;;;;5055403;28;20086;-67
2023/01/08 03:11:04;;;;;;;4.25;1.23;;;14.60;94.00;;;;;;5055267;28;20021;-65
2023/01/08 03:13:57;;;;;;;6.78;1.55;;;14.60;94.00;;;;;;5055020;28;20032;-71
2023/01/08 03:16:31;;;;;;;4.45;1.20;;;14.70;94.10;;;;;;5046705;28;20132;-66
2023/01/08 03:19:07;;;;;;;5.97;1.60;;;14.70;94.10;;;;;;5054693;28;20485;-64
2023/01/08 03:21:35;;;;;;;4.53;1.10;;;14.50;94.20;;;;;;5054876;28;20032;-69
2023/01/08 03:24:03;;;;;;;6.22;1.10;;;14.50;94.20;;;;;;5055029;28;20036;-65
2023/01/08 03:26:31;;;;;;;3.65;1.67;;;14.60;94.30;;;;;;5054973;28;20024;-68
2023/01/08 03:28:57;;;;;;;4.05;1.58;;;14.60;94.20;;;;;;5054725;28;20080;-71
2023/01/08 03:31:26;;;;;;;4.47;1.40;;;14.60;94.00;;;;;;5054794;28;20065;-66
2023/01/08 03:33:53;;;;;;;3.25;0.98;;;14.60;93.90;;;;;;5054462;28;20025;-64
2023/01/08 03:36:22;;;;;;;4.50;1.40;;;14.60;94.00;;;;;;5053438;28;20048;-66
2023/01/08 03:39:18;;;;;;;4.32;1.50;;;14.40;94.00;;;;;;5054552;28;20474;-65
2023/01/08 03:41:44;;;;;;;4.97;1.40;;;14.50;94.10;;;;;;5054641;28;20025;-65
2023/01/08 03:44:10;;;;;;;5.70;1.27;;;14.50;93.60;;;;;;5053525;28;20021;-65
2023/01/08 03:46:42;;;;;;;3.63;1.17;;;14.50;93.40;;;;;;5059109;28;20031;-66
2023/01/08 03:49:09;;;;;;;6.30;0.98;;;14.50;93.40;;;;;;5066949;28;20028;-66
2023/01/08 03:51:45;;;;;;;4.60;0.98;;;14.50;93.00;;;;;;5073595;28;20020;-67
2023/01/08 03:54:14;;;;;;;3.22;0.93;;;14.50;92.90;;;;;;5073899;28;20059;-66
2023/01/08 03:56:40;;;;;;;3.67;1.02;;;14.50;92.70;;;;;;5074111;28;20108;-67
2023/01/08 03:59:05;;;;;;;3.45;0.70;;;14.50;92.70;;;;;;5073852;28;20100;-66
2023/01/08 04:01:31;;;;;;;3.15;0.82;;;14.50;92.50;;;;;;5074159;28;20054;-65
2023/01/08 04:03:57;;;;;;;3.17;0.90;;;14.40;92.40;;;;;;5072530;28;20028;-66
2023/01/08 04:06:22;;;;;;;6.90;1.40;;;14.40;92.40;;;;;;5073978;28;20025;-64
2023/01/08 04:08:48;;;;;;;5.45;1.23;;;14.30;92.40;;;;;;5071947;28;20027;-67
2023/01/08 04:11:13;;;;;;;3.45;0.77;;;14.40;92.30;;;;;;5073796;28;20024;-66
2023/01/08 04:13:39;;;;;;;4.40;0.73;;;14.40;92.20;;;;;;5073850;28;20029;-66
2023/01/08 04:16:05;;;;;;;4.45;0.90;;;14.20;92.30;;;;;;5074044;28;20104;-66
2023/01/08 04:18:30;;;;;;;2.42;0.80;;;14.20;92.30;;;;;;5073554;28;20032;-65
2023/01/08 04:20:56;;;;;;;3.50;0.82;;;14.20;92.30;;;;;;5073646;28;20056;-65
2023/01/08 04:23:22;;;;;;;2.78;0.73;;;14.30;92.30;;;;;;5073757;28;20406;-66
2023/01/08 04:25:47;;;;;;;6.00;0.73;;;14.30;92.10;;;;;;5073856;28;20032;-66
2023/01/08 04:28:13;;;;;;;4.22;0.75;;;14.20;92.20;;;;;;5073583;28;20382;-66
2023/01/08 04:30:38;;;;;;;3.47;0.70;;;14.30;92.20;;;;;;5073535;28;20032;-65
2023/01/08 04:33:04;;;;;;;2.50;0.90;;;14.20;92.30;;;;;;5073199;28;20466;-65
2023/01/08 04:35:30;;;;;;;3.92;0.60;;;14.20;92.30;;;;;;5073408;28;20488;-65
2023/01/08 04:37:55;;;;;;;4.93;1.08;;;14.10;92.30;;;;;;5073605;28;20031;-64
2023/01/08 04:40:21;;;;;;;2.92;0.95;;;14.20;92.60;;;;;;5073001;28;20028;-69
2023/01/08 04:42:46;;;;;;;5.00;1.25;;;14.20;92.30;;;;;;5073359;28;20025;-68
2023/01/08 04:45:12;;;;;;;4.43;0.88;;;14.30;92.20;;;;;;5073179;28;20023;-68
2023/01/08 04:47:37;;;;;;;3.70;0.77;;;14.20;92.20;;;;;;5073342;28;20035;-68
2023/01/08 04:50:03;;;;;;;4.15;0.88;;;14.20;92.30;;;;;;5073174;28;20126;-68
2023/01/08 04:52:29;;;;;;;1.83;0.60;;;14.20;92.20;;;;;;5073250;28;20131;-65
2023/01/08 04:54:54;;;;;;;7.72;1.30;;;14.00;92.40;;;;;;5072645;28;20024;-64
2023/01/08 04:57:20;;;;;;;5.13;1.08;;;14.10;92.30;;;;;;5072652;28;20099;-65
2023/01/08 04:59:45;;;;;;;2.17;0.77;;;14.10;92.10;;;;;;5072891;28;20028;-69
2023/01/08 05:02:11;;;;;;;5.00;1.10;;;14.10;92.50;;;;;;5072898;28;20042;-70
2023/01/08 05:04:36;;;;;;;5.60;0.70;;;14.10;92.20;;;;;;5072929;28;20100;-69
2023/01/08 05:07:03;;;;;;;3.17;0.93;;;14.00;92.00;;;;;;5072856;28;20026;-69
2023/01/08 05:09:29;;;;;;;5.68;1.00;;;14.00;92.10;;;;;;5072922;28;20046;-69
2023/01/08 05:11:54;;;;;;;4.40;0.80;;;14.00;92.10;;;;;;5073043;28;20141;-65
2023/01/08 05:14:20;;;;;;;6.28;1.10;;;13.90;92.10;;;;;;5071770;28;20028;-65
2023/01/08 05:16:46;;;;;;;4.35;1.10;;;14.00;92.10;;;;;;5072959;28;20039;-65
2023/01/08 05:19:12;;;;;;;8.57;1.10;;;13.90;92.00;;;;;;5072902;28;20499;-65
2023/01/08 05:21:37;;;;;;;7.82;1.30;;;13.90;92.10;;;;;;5072554;28;20037;-64
2023/01/08 05:24:03;;;;;;;4.18;1.00;;;13.90;92.00;;;;;;5072868;28;20024;-64
2023/01/08 05:26:29;;;;;;;5.57;0.98;;;13.70;92.00;;;;;;5072804;28;20488;-64
2023/01/08 05:28:54;;;;;;;6.97;1.00;;;13.80;92.10;;;;;;5072620;28;20047;-64
2023/01/08 05:31:20;;;;;;;5.55;1.08;;;13.80;92.00;;;;;;5072226;28;20033;-65
2023/01/08 05:33:46;;;;;;;7.53;1.60;;;13.70;92.10;;;;;;5072599;28;20025;-65
2023/01/08 05:36:12;;;;;;;7.90;1.50;;;13.70;92.10;;;;;;5072567;28;20036;-65
2023/01/08 05:38:38;;;;;;;8.38;1.33;;;13.60;92.10;;;;;;5072808;28;20095;-65
2023/01/08 05:41:05;;;;;;;6.28;1.33;;;13.70;92.20;;;;;;5072275;28;20115;-66
2023/01/08 05:43:31;;;;;;;8.85;1.35;;;13.80;92.10;;;;;;5072698;28;20446;-65
2023/01/08 05:45:58;;;;;;;10.98;1.73;;;13.70;92.10;;;;;;5072031;28;20052;-64
2023/01/08 05:48:24;;;;;;;7.45;1.27;;;13.70;92.10;;;;;;5072413;28;20029;-64
2023/01/08 05:50:50;;;;;;;6.32;1.45;;;13.70;92.00;;;;;;5072453;28;20024;-66
2023/01/08 05:53:15;;;;;;;6.85;1.35;;;13.70;92.10;;;;;;5072186;28;20029;-65
2023/01/08 05:55:41;;;;;;;4.68;1.13;;;13.60;92.20;;;;;;5072396;28;20067;-64
2023/01/08 05:58:07;;;;;;;7.10;1.98;;;13.60;92.10;;;;;;5072348;28;20091;-64
2023/01/08 06:00:34;;;;;;;7.90;1.55;;;13.60;92.20;;;;;;5067789;28;20036;-66
2023/01/08 06:02:59;;;;;;;6.05;1.30;;;13.60;92.10;;;;;;5053447;28;20150;-66
2023/01/08 06:05:25;;;;;;;6.00;1.50;;;13.50;92.20;;;;;;5052205;28;20071;-65
2023/01/08 06:07:50;;;;;;;9.55;1.77;;;13.60;92.20;;;;;;5052667;28;20066;-65
2023/01/08 06:10:16;;;;;;;10.02;1.80;;;13.50;92.20;;;;;;5056191;28;20025;-65
2023/01/08 06:12:42;;;;;;;7.60;1.50;;;13.50;92.40;;;;;;5056209;28;20024;-65
2023/01/08 06:15:09;;;;;;;6.32;1.67;;;13.40;92.30;;;;;;5056068;28;20083;-65
2023/01/08 06:17:35;;;;;;;5.97;1.20;;;13.50;92.20;;;;;;5054834;28;20052;-65
2023/01/08 06:20:01;;;;;;;5.93;1.50;;;13.40;92.30;;;;;;5056007;28;20053;-65
2023/01/08 06:22:26;;;;;;;14.07;2.13;;;13.40;92.40;;;;;;5056054;28;20080;-64
2023/01/08 06:24:52;;;;;;;7.15;1.40;;;13.40;92.30;;;;;;5055990;28;20355;-65
2023/01/08 06:27:18;;;;;;;9.40;1.60;;;13.40;92.40;;;;;;5055746;28;20478;-64
2023/01/08 06:29:43;;;;;;;8.20;1.75;;;13.50;92.40;;;;;;5054775;28;20021;-65
2023/01/08 06:32:09;;;;;;;7.03;1.65;;;13.40;92.30;;;;;;5055582;28;20382;-65
2023/01/08 06:34:34;;;;;;;7.88;1.75;;;13.40;92.40;;;;;;5054689;28;20351;-65
2023/01/08 06:37:00;;;;;;;5.68;1.58;;;13.30;92.50;;;;;;5055695;28;20434;-66
2023/01/08 06:39:26;;;;;;;11.57;1.80;;;13.30;92.50;;;;;;5055985;28;20021;-65
2023/01/08 06:41:51;;;;;;;8.02;1.63;;;13.30;92.50;;;;;;5055550;28;20375;-66
2023/01/08 06:44:17;;;;;;;5.28;1.23;;;13.40;92.50;;;;;;5055786;28;20474;-69
2023/01/08 06:46:42;;;;;;;9.80;1.73;;;13.30;92.50;;;;;;5055724;28;20501;-69
2023/01/08 06:49:08;;;;;;;6.82;1.60;;;13.40;92.40;;;;;;5056079;28;20021;-66
2023/01/08 06:51:34;;;;;;;6.88;1.70;;;13.30;92.40;;;;;;5055342;28;20033;-66
2023/01/08 06:54:00;;;;;;;9.90;1.50;;;13.40;92.40;;;;;;5055807;28;20024;-69
2023/01/08 06:56:26;;;;;;;6.13;1.50;;;13.40;92.40;;;;;;5055272;28;20036;-69
2023/01/08 06:58:51;;;;;;;10.73;1.63;;;13.40;92.30;;;;;;5055326;28;20495;-67
2023/01/08 07:01:17;;;;;;;6.88;1.42;;;13.30;92.30;;;;;;5053907;28;20040;-69
2023/01/08 07:03:43;;;;;;;7.22;1.42;;;13.30;92.40;;;;;;5054005;28;20024;-65
2023/01/08 07:06:15;;;;;;;8.98;1.40;;;13.30;92.40;;;;;;5055508;28;20071;-69
2023/01/08 07:08:42;;;;;;;7.88;1.77;;;13.30;92.50;;;;;;5055230;28;20474;-68
2023/01/08 07:11:07;;;;;;;8.70;1.55;;;13.30;92.50;;;;;;5054858;28;20028;-64
2023/01/08 07:13:33;;;;;;;10.23;1.90;;;13.30;92.50;;;;;;5054910;28;20732;-64
2023/01/08 07:16:07;;;;;;;13.20;2.15;;;13.20;92.60;;;;;;5055192;28;20447;-66
2023/01/08 07:18:33;;;;;;;10.73;1.60;;;13.10;92.80;;;;;;5053869;28;20055;-64
2023/01/08 07:20:59;;;;;;;10.25;1.52;;;13.20;92.70;;;;;;5055187;28;20068;-66
2023/01/08 07:23:24;;;;;;;6.72;1.60;;;13.20;92.70;;;;;;5054985;28;20033;-64
2023/01/08 07:25:50;;;;;;;7.85;1.33;;;13.20;92.70;;;;;;5054537;28;20072;-65
2023/01/08 07:28:15;;;;;;;11.25;1.88;;;13.20;92.80;;;;;;5054787;28;20021;-65
2023/01/08 07:30:42;;;;;;;8.77;1.63;;;13.20;92.90;;;;;;5054819;28;20501;-65
2023/01/08 07:33:07;;;;;;;6.88;1.25;;;13.20;93.20;;;;;;5054596;28;20070;-64
2023/01/08 07:35:34;;;;;;;7.60;2.50;;;13.20;92.90;;;;;;5054901;28;20468;-63
2023/01/08 07:37:59;;;;;;;11.80;2.42;;;13.20;92.90;;;;;;5054671;28;20472;-64
2023/01/08 07:40:25;;;;;;;10.48;2.47;;;13.20;93.00;;;;;;5061518;28;20039;-65
2023/01/08 07:42:58;;;;;;;11.50;3.78;;;13.10;93.00;;;;;;5065177;28;20033;-65
2023/01/08 07:45:24;;;;;;;10.02;3.20;;;13.00;93.20;;;;;;5070139;28;20151;-63
2023/01/08 07:47:49;;;;;;;11.10;3.33;;;13.10;93.20;;;;;;5065735;28;20132;-65
2023/01/08 07:50:15;;;;;;;9.32;2.92;;;13.10;93.20;;;;;;5066417;28;20020;-65
2023/01/08 07:52:40;;;;;;;7.90;3.45;;;13.10;93.30;;;;;;5065700;28;20474;-66
2023/01/08 07:55:06;;;;;;;11.77;2.95;;;13.00;93.40;;;;;;5061502;28;20037;-65
2023/01/08 07:57:31;;;;;;;8.75;2.65;;;13.10;93.30;;;;;;5069304;28;20021;-68
2023/01/08 07:59:57;;;;;;;8.27;3.63;;;13.00;93.30;;;;;;5066449;28;20025;-66
2023/01/08 08:02:22;;;;;;;8.55;2.75;;;13.00;93.40;;;;;;5063531;28;20024;-65
2023/01/08 08:04:48;;;;;;;8.15;3.05;;;13.00;93.50;;;;;;5064037;28;20029;-65
2023/01/08 08:07:14;;;;;;;10.88;2.95;;;13.10;93.50;;;;;;5067504;28;20024;-64
2023/01/08 08:09:39;;;;;;;9.55;2.78;;;13.10;93.50;;;;;;5065872;28;20025;-65
2023/01/08 08:12:05;;;;;;;8.23;2.65;;;13.00;93.60;;;;;;5068404;28;20052;-65
2023/01/08 08:14:30;;;;;;;9.05;2.30;;;13.00;93.70;;;;;;5064281;28;20448;-64
2023/01/08 08:16:56;;;;;;;10.65;2.47;;;12.90;93.80;;;;;;5068136;28;20322;-65
2023/01/08 08:19:21;;;;;;;6.90;2.72;;;12.90;93.90;;;;;;5069039;28;20024;-64
2023/01/08 08:21:47;;;;;;;9.18;2.90;;;12.90;93.90;;;;;;5069670;28;20033;-64
2023/01/08 08:24:13;;;;;;;11.18;3.03;;;13.00;93.80;;;;;;5064161;28;20034;-64
2023/01/08 08:26:38;;;;;;;13.95;2.67;;;12.90;93.80;;;;;;5062377;28;20063;-64
2023/01/08 08:29:04;;;;;;;13.25;2.25;;;12.60;94.30;;;;;;5053728;28;20036;-64
2023/01/08 08:31:29;;;;;;;6.28;2.10;;;12.70;94.30;;;;;;5053242;28;20132;-65
2023/01/08 08:33:55;;;;;;;5.82;1.92;;;12.70;94.60;;;;;;5056285;28;20496;-65
2023/01/08 08:36:26;;;;;;;6.82;1.77;;;12.70;94.40;;;;;;5071446;28;20513;-67
2023/01/08 08:38:51;;;;;;;8.07;1.98;;;12.90;95.00;;;;;;5071299;28;20362;-66
2023/01/08 08:41:17;;;;;;;9.45;2.58;;;12.90;94.70;;;;;;5073338;28;20043;-66
2023/01/08 08:43:43;;;;;;;6.20;2.20;;;12.80;94.80;;;;;;5073076;28;20416;-65
2023/01/08 08:46:08;;;;;;;7.20;1.83;;;12.50;95.00;;;;;;5073554;28;20039;-65
2023/01/08 08:48:34;;;;;;;9.77;1.95;;;12.50;95.20;;;;;;5073385;28;20021;-65
2023/01/08 08:50:59;;;;;;;9.88;2.42;;;12.40;95.20;;;;;;5073055;28;20449;-65
2023/01/08 08:53:25;;;;;;;6.72;1.95;;;12.30;95.40;;;;;;5073062;28;20033;-67
2023/01/08 08:55:50;;;;;;;9.93;2.00;;;12.70;95.80;;;;;;5071151;28;20024;-67
2023/01/08 08:58:16;;;;;;;12.60;2.30;;;13.10;95.50;;;;;;5073026;28;20405;-68
2023/01/08 09:00:42;;;;;;;10.38;3.40;;;13.30;95.20;;;;;;5073021;28;20038;-65
2023/01/08 09:03:13;;;;;;;13.40;3.60;;;13.40;94.90;;;;;;5071859;28;20040;-66
2023/01/08 09:05:39;;;;;;;6.63;3.40;;;13.30;94.80;;;;;;5070930;28;20025;-64
2023/01/08 09:08:05;;;;;;;9.88;2.65;;;13.40;95.10;;;;;;5071405;28;20362;-66
2023/01/08 09:10:30;;;;;;;11.57;3.42;;;13.20;94.60;;;;;;5067669;28;20087;-65
2023/01/08 09:12:56;;;;;;;10.45;3.03;;;13.20;95.10;;;;;;5061457;28;20433;-67
2023/01/08 09:15:22;;;;;;;10.00;2.60;;;13.20;95.20;;;;;;5070618;28;20029;-66
2023/01/08 09:17:54;;;;;;;10.05;2.25;;;13.00;95.20;;;;;;5072292;28;20024;-66
2023/01/08 09:20:21;;;;;;;7.03;3.05;;;13.00;95.70;;;;;;5055430;28;20036;-66
2023/01/08 09:22:46;;;;;;;8.40;3.35;;;12.90;96.40;;;;;;5069856;28;20028;-66
2023/01/08 09:25:12;;;;;;;13.98;3.35;;;13.00;98.30;;;;;;5072465;28;20473;-66
2023/01/08 09:27:38;;;;;;;8.70;3.20;;;13.20;99.70;;;;;;5072676;28;20036;-69
2023/01/08 09:30:04;;;;;;;8.63;3.05;;;13.30;98.30;;;;;;5072130;28;20414;-69
2023/01/08 09:32:29;;;;;;;10.77;2.67;;;13.30;98.20;;;;;;5072648;28;20028;-69
2023/01/08 09:34:55;;;;;;;8.38;2.70;;;13.50;98.70;;;;;;5072161;28;20085;-69
2023/01/08 09:37:22;;;;;;;8.98;2.40;;;13.50;98.50;;;;;;5072348;28;20161;-66
2023/01/08 09:39:48;;;;;;;9.45;2.85;;;13.40;97.70;;;;;;5072262;28;20013;-68
2023/01/08 09:42:15;;;;;;;19.52;2.38;;;13.40;98.00;;;;;;5057885;28;20045;-65
2023/01/08 09:44:43;;;;;;;12.50;2.60;;;13.60;98.10;;;;;;5058700;28;20021;-66
2023/01/08 09:47:34;;;;;;;14.90;2.45;;;13.70;97.60;;;;;;5063965;28;20051;-65
2023/01/08 09:50:05;;;;;;;11.98;1.77;;;14.00;97.10;;;;;;5072423;28;20044;-68
2023/01/08 09:52:31;;;;;;;16.77;1.60;;;14.20;96.60;;;;;;5070715;28;20032;-64
2023/01/08 09:54:58;;;;;;;6.82;1.60;;;14.40;96.30;;;;;;5072052;28;20025;-64
2023/01/08 09:57:24;;;;;;;7.82;1.38;;;14.40;96.10;;;;;;5071143;28;20021;-67
2023/01/08 09:59:50;;;;;;;4.18;1.73;;;14.50;96.00;;;;;;5072116;28;20028;-67
2023/01/08 10:02:19;;;;;;;4.43;1.05;;;14.60;95.90;;;;;;5072180;28;20486;-65
2023/01/08 10:04:49;;;;;;;5.97;1.38;;;14.60;96.40;;;;;;5071986;28;20484;-65
2023/01/08 10:07:23;;;;;;;4.18;0.90;;;14.70;96.10;;;;;;5072220;28;20025;-65
2023/01/08 10:09:49;;;;;;;5.25;1.00;;;14.60;95.70;;;;;;5072357;28;20017;-64
2023/01/08 10:12:23;;;;;;;3.17;1.10;;;14.60;95.40;;;;;;5071594;28;20025;-64
2023/01/08 10:14:49;;;;;;;5.22;1.27;;;14.60;95.00;;;;;;5072179;28;20032;-65
2023/01/08 10:17:49;;;;;;;4.40;1.00;;;14.60;94.80;;;;;;5070797;28;20338;-66
2023/01/08 10:20:18;;;;;;;4.10;0.80;;;14.50;94.60;;;;;;5070324;28;20388;-68
2023/01/08 10:22:46;;;;;;;2.95;0.80;;;14.50;94.70;;;;;;5072395;28;20368;-65
2023/01/08 10:25:15;;;;;;;5.75;0.75;;;14.50;94.60;;;;;;5071758;28;20040;-65
2023/01/08 10:27:53;;;;;;;2.72;0.73;;;14.50;94.40;;;;;;5054652;28;20024;-65
2023/01/08 10:30:22;;;;;;;3.33;0.73;;;14.50;94.30;;;;;;5070207;28;20048;-69
2023/01/08 10:32:53;;;;;;;3.92;0.95;;;14.50;94.20;;;;;;5070423;28;20024;-67
2023/01/08 10:35:23;;;;;;;2.58;1.05;;;14.50;94.10;;;;;;5071491;28;20090;-69
2023/01/08 10:37:49;;;;;;;4.93;0.65;;;14.50;93.90;;;;;;5069592;28;20044;-65
2023/01/08 10:40:44;;;;;;;2.63;0.65;;;14.50;93.90;;;;;;5069817;28;20037;-64
2023/01/08 10:43:23;;;;;;;5.65;1.00;;;14.60;93.70;;;;;;5071206;28;20058;-68
2023/01/08 10:45:58;;;;;;;3.35;0.63;;;14.70;93.60;;;;;;5059754;28;20032;-67
2023/01/08 10:48:32;;;;;;;5.00;0.60;;;14.70;93.60;;;;;;5066881;28;20108;-68
2023/01/08 10:51:19;;;;;;;3.75;1.17;;;14.70;93.50;;;;;;5060547;28;20027;-65
2023/01/08 10:53:45;;;;;;;2.60;0.70;;;14.70;93.60;;;;;;5058735;28;20024;-67
2023/01/08 10:56:23;;;;;;;4.25;0.63;;;14.70;93.70;;;;;;5064348;28;20052;-66
2023/01/08 10:58:49;;;;;;;3.80;0.82;;;14.70;93.80;;;;;;5066123;28;20032;-64
2023/01/08 11:01:21;;;;;;;6.18;1.17;;;14.60;93.90;;;;;;5055531;28;20350;-69
2023/01/08 11:04:03;;;;;;;5.45;0.85;;;14.60;94.10;;;;;;5061618;28;20017;-68
2023/01/08 11:06:32;;;;;;;6.05;0.73;;;14.70;94.10;;;;;;5061280;28;20037;-66
2023/01/08 11:09:00;;;;;;;6.13;0.98;;;14.70;94.10;;;;;;5063750;28;20088;-67
2023/01/08 11:11:36;;;;;;;3.58;0.50;;;14.70;94.10;;;;;;5061525;28;20036;-65
2023/01/08 11:14:05;;;;;;;7.43;0.85;;;14.80;94.10;;;;;;5054726;28;20378;-66
2023/01/08 11:16:39;;;;;;;4.28;0.77;;;14.90;94.00;;;;;;5063828;28;20138;-65
2023/01/08 11:19:30;;;;;;;3.35;0.98;;;14.90;93.80;;;;;;5066767;28;20049;-64
2023/01/08 11:22:16;;;;;;;4.03;0.80;;;14.90;93.50;;;;;;5064357;28;20056;-64
2023/01/08 11:24:42;;;;;;;5.40;0.80;;;14.90;93.50;;;;;;5053473;28;20049;-66
2023/01/08 11:27:28;;;;;;;3.25;0.75;;;14.90;93.50;;;;;;5066613;28;20508;-65
2023/01/08 11:30:12;;;;;;;3.90;0.70;;;14.90;93.50;;;;;;5072110;28;20029;-65
2023/01/08 11:32:56;;;;;;;2.08;0.50;;;14.90;93.50;;;;;;5072746;28;20044;-68
2023/01/08 11:35:27;;;;;;;3.85;0.70;;;15.00;93.30;;;;;;5072040;28;20023;-70
2023/01/08 11:37:58;;;;;;;3.15;0.80;;;14.90;93.10;;;;;;5074045;28;20086;-69
2023/01/08 11:40:30;;;;;;;5.22;1.23;;;15.00;93.20;;;;;;5073911;28;20070;-66
2023/01/08 11:43:20;;;;;;;4.72;0.80;;;15.00;93.00;;;;;;5073659;28;20033;-67
2023/01/08 11:46:04;;;;;;;7.47;1.13;;;15.10;93.10;;;;;;5073494;28;20024;-69
2023/01/08 11:48:30;;;;;;;5.93;1.00;;;15.10;93.30;;;;;;5071907;28;20036;-70
2023/01/08 11:51:34;;;;;;;3.63;0.88;;;14.90;93.00;;;;;;5073894;28;20044;-69
2023/01/08 11:54:28;;;;;;;5.95;1.13;;;14.90;93.20;;;;;;5012410;28;20048;-66
2023/01/08 11:57:02;;;;;;;4.13;1.10;;;14.70;93.10;;;;;;5011358;28;20068;-69
2023/01/08 11:59:54;;;;;;;11.05;1.20;;;14.70;93.50;;;;;;5055467;28;20112;-70
2023/01/08 12:02:41;;;;;;;4.57;1.20;;;14.70;93.70;;;;;;5073294;28;20050;-65
2023/01/08 12:05:47;;;;;;;5.18;1.13;;;14.70;93.60;;;;;;5073063;28;20031;-65
2023/01/08 12:08:18;;;;;;;3.97;1.00;;;14.70;93.30;;;;;;5070285;28;20490;-66
2023/01/08 12:11:16;;;;;;;3.10;0.73;;;14.70;93.50;;;;;;5074102;28;20470;-69
2023/01/08 12:14:05;;;;;;;6.03;0.95;;;14.60;93.30;;;;;;5073180;28;20466;-68
2023/01/08 12:16:43;;;;;;;4.05;1.00;;;14.80;93.30;;;;;;5073072;28;20073;-68
2023/01/08 12:19:20;;;;;;;3.50;0.70;;;14.80;93.00;;;;;;5073665;28;20017;-66
2023/01/08 12:22:04;;;;;;;4.03;1.02;;;14.70;93.20;;;;;;5073236;28;20041;-69
2023/01/08 12:24:48;;;;;;;4.60;0.98;;;14.70;92.90;;;;;;5053653;28;20060;-64
2023/01/08 12:27:19;;;;;;;5.45;1.00;;;14.80;93.10;;;;;;5053939;28;20028;-66
2023/01/08 12:29:57;;;;;;;3.45;1.05;;;14.80;92.70;;;;;;5053157;28;20029;-64
2023/01/08 12:32:39;;;;;;;3.65;1.20;;;14.80;93.00;;;;;;5052529;28;20033;-68
2023/01/08 12:35:21;;;;;;;4.22;1.02;;;14.80;92.60;;;;;;5052466;28;20071;-69
2023/01/08 12:37:58;;;;;;;6.13;0.93;;;14.80;92.90;;;;;;5053652;28;20033;-69
2023/01/08 12:40:34;;;;;;;4.35;0.88;;;14.80;92.50;;;;;;5067035;28;20124;-66
2023/01/08 12:43:07;;;;;;;5.35;0.95;;;14.80;92.70;;;;;;5072788;28;20425;-68
2023/01/08 12:45:37;;;;;;;5.13;0.90;;;14.80;92.70;;;;;;5072989;28;20013;-68
2023/01/08 12:48:15;;;;;;;4.50;1.17;;;14.80;92.50;;;;;;5073480;28;20108;-68
2023/01/08 12:50:47;;;;;;;4.85;0.93;;;14.90;92.60;;;;;;5072617;28;20044;-69
2023/01/08 12:53:31;;;;;;;4.65;1.00;;;14.80;92.30;;;;;;5073228;28;20428;-67
2023/01/08 12:56:19;;;;;;;3.35;0.82;;;14.80;92.20;;;;;;5070722;28;20040;-68
2023/01/08 12:58:44;;;;;;;5.78;1.00;;;14.70;92.20;;;;;;5072165;28;20027;-64